createdAt,value
2018-12-02T00:00:57.800Z,99481.68
2018-12-02T00:03:26.292Z,99480.37
2018-12-02T00:05:54.977Z,99487.65
2018-12-02T00:08:24.272Z,99484.59
2018-12-02T00:10:53.537Z,99473.86
2018-12-02T00:13:22.227Z,99465.27
2018-12-02T00:15:50.755Z,99473.26
2018-12-02T00:18:19.309Z,99466.39
2018-12-02T00:20:47.872Z,99456.15
2018-12-02T00:23:16.402Z,99463.14
2018-12-02T00:25:44.896Z,99462.03
2018-12-02T00:28:13.481Z,99450.89
2018-12-02T00:30:42.077Z,99443.11
2018-12-02T00:33:10.571Z,99443.92
2018-12-02T00:35:39.170Z,99448.08
2018-12-02T00:38:08.752Z,99440.38
2018-12-02T00:40:37.277Z,99440.77
2018-12-02T00:43:07.471Z,99436.63
2018-12-02T00:45:37.035Z,99451.09
2018-12-02T00:48:07.164Z,99436.83
2018-12-02T00:50:35.990Z,99423.86
2018-12-02T00:53:04.904Z,99416.39
2018-12-02T00:55:37.083Z,99416.08
2018-12-02T00:58:06.036Z,99399.39
2018-12-02T01:00:34.547Z,99398.86
2018-12-02T01:03:03.287Z,99395.92
2018-12-02T01:05:31.806Z,99396.81
2018-12-02T01:08:00.367Z,99393.48
2018-12-02T01:10:28.886Z,99399.06
2018-12-02T01:12:58.534Z,99401.47
2018-12-02T01:15:28.310Z,99390.34
2018-12-02T01:17:57.040Z,99391.16
2018-12-02T01:20:25.556Z,99384.27
2018-12-02T01:22:54.114Z,99377.40
2018-12-02T01:25:22.759Z,99378.41
2018-12-02T01:27:51.333Z,99374.05
2018-12-02T01:30:24.992Z,99378.77
2018-12-02T01:32:54.766Z,99385.56
2018-12-02T01:35:23.400Z,99376.34
2018-12-02T01:37:52.095Z,99373.42
2018-12-02T01:40:22.726Z,99369.05
2018-12-02T01:42:52.339Z,99354.89
2018-12-02T01:45:28.489Z,99347.49
2018-12-02T01:47:57.422Z,99353.97
2018-12-02T01:50:27.158Z,99337.53
2018-12-02T01:52:56.671Z,99334.22
2018-12-02T01:55:25.213Z,99330.45
2018-12-02T01:57:53.691Z,99317.79
2018-12-02T02:00:24.614Z,99321.34
2018-12-02T02:02:53.712Z,99307.89
2018-12-02T02:05:23.149Z,99316.97
2018-12-02T02:07:51.778Z,99308.47
2018-12-02T02:10:24.466Z,99304.84
2018-12-02T02:12:53.144Z,99315.44
2018-12-02T02:15:21.708Z,99317.29
2018-12-02T02:17:50.376Z,99313.84
2018-12-02T02:20:20.924Z,99309.89
2018-12-02T02:22:49.605Z,99307.75
2018-12-02T02:25:19.277Z,99304.73
2018-12-02T02:27:51.348Z,99295.91
2018-12-02T02:30:21.949Z,99303.20
2018-12-02T02:32:50.660Z,99307.94
2018-12-02T02:35:20.177Z,99303.20
2018-12-02T02:37:49.574Z,99298.82
2018-12-02T02:40:19.177Z,99296.91
2018-12-02T02:42:47.676Z,99293.45
2018-12-02T02:45:16.657Z,99289.08
2018-12-02T02:47:45.536Z,99286.16
2018-12-02T02:50:16.064Z,99280.07
2018-12-02T02:52:46.798Z,99278.75
2018-12-02T02:55:15.440Z,99263.27
2018-12-02T02:57:43.992Z,99257.79
2018-12-02T03:00:20.108Z,99252.20
2018-12-02T03:02:48.707Z,99247.97
2018-12-02T03:05:17.835Z,99250.11
2018-12-02T03:07:46.384Z,99251.81
2018-12-02T03:10:17.945Z,99236.89
2018-12-02T03:12:48.400Z,99231.41
2018-12-02T03:15:17.976Z,99232.89
2018-12-02T03:17:46.645Z,99228.34
2018-12-02T03:20:16.408Z,99229.88
2018-12-02T03:22:46.086Z,99227.03
2018-12-02T03:25:15.672Z,99221.76
2018-12-02T03:27:44.155Z,99221.86
2018-12-02T03:30:13.994Z,99211.61
2018-12-02T03:32:42.553Z,99212.92
2018-12-02T03:35:12.447Z,99204.23
2018-12-02T03:37:41.023Z,99196.34
2018-12-02T03:40:12.112Z,99197.72
2018-12-02T03:42:40.812Z,99194.80
2018-12-02T03:45:12.401Z,99178.30
2018-12-02T03:47:40.917Z,99173.95
2018-12-02T03:50:17.665Z,99164.92
2018-12-02T03:52:44.183Z,99167.71
2018-12-02T03:55:12.985Z,99159.09
2018-12-02T03:57:41.532Z,99157.77
2018-12-02T04:00:13.501Z,99159.19
2018-12-02T04:02:42.137Z,99147.23
2018-12-02T04:05:11.711Z,99150.69
2018-12-02T04:07:40.436Z,99155.14
2018-12-02T04:10:11.303Z,99148.05
2018-12-02T04:12:39.839Z,99151.12
2018-12-02T04:15:13.084Z,99144.26
2018-12-02T04:17:41.959Z,99155.39
2018-12-02T04:20:12.588Z,99146.61
2018-12-02T04:22:41.307Z,99142.13
2018-12-02T04:25:12.820Z,99134.82
2018-12-02T04:27:41.490Z,99137.11
2018-12-02T04:30:11.624Z,99129.48
2018-12-02T04:32:40.203Z,99127.42
2018-12-02T04:35:10.884Z,99124.16
2018-12-02T04:37:39.388Z,99119.17
2018-12-02T04:40:10.530Z,99117.26
2018-12-02T04:42:39.903Z,99123.44
2018-12-02T04:45:11.681Z,99122.12
2018-12-02T04:47:40.196Z,99117.07
2018-12-02T04:50:11.415Z,99104.23
2018-12-02T04:52:40.158Z,99110.55
2018-12-02T04:55:09.452Z,99106.75
2018-12-02T04:57:38.620Z,99097.84
2018-12-02T05:05:17.827Z,99091.38
2018-12-02T05:07:46.380Z,99080.11
2018-12-02T05:10:16.904Z,99080.17
2018-12-02T05:12:45.442Z,99076.45
2018-12-02T05:15:15.828Z,99061.82
2018-12-02T05:17:44.367Z,99055.73
2018-12-02T05:20:14.772Z,99059.91
2018-12-02T05:22:43.336Z,99055.83
2018-12-02T05:25:17.650Z,99064.02
2018-12-02T05:27:42.808Z,99063.66
2018-12-02T05:30:15.265Z,99057.56
2018-12-02T05:32:44.364Z,99057.66
2018-12-02T05:35:13.869Z,99043.66
2018-12-02T05:37:42.637Z,99044.98
2018-12-02T05:40:12.508Z,99045.85
2018-12-02T05:42:41.132Z,99040.22
2018-12-02T05:45:12.493Z,99033.26
2018-12-02T05:47:41.108Z,99029.08
2018-12-02T05:50:11.674Z,99033.85
2018-12-02T05:52:40.226Z,99028.45
2018-12-02T05:55:10.746Z,99020.00
2018-12-02T05:57:39.319Z,99021.85
2018-12-02T06:00:13.160Z,99020.45
2018-12-02T06:02:41.712Z,99015.09
2018-12-02T06:05:11.272Z,99010.05
2018-12-02T06:07:39.830Z,98999.37
2018-12-02T06:10:14.349Z,98997.97
2018-12-02T06:12:42.927Z,98992.69
2018-12-02T06:15:17.103Z,98999.14
2018-12-02T06:17:48.808Z,99010.73
2018-12-02T06:20:21.301Z,98996.23
2018-12-02T06:22:50.667Z,98997.46
2018-12-02T06:25:19.237Z,98991.45
2018-12-02T06:27:47.815Z,98988.88
2018-12-02T06:30:18.320Z,98979.09
2018-12-02T06:32:47.704Z,98977.02
2018-12-02T06:35:16.426Z,98972.19
2018-12-02T06:37:45.137Z,98966.33
2018-12-02T06:40:16.950Z,98961.88
2018-12-02T06:42:45.460Z,98955.05
2018-12-02T06:45:14.465Z,98954.19
2018-12-02T06:47:43.212Z,98959.38
2018-12-02T06:50:13.311Z,98960.31
2018-12-02T06:52:41.996Z,98960.61
2018-12-02T06:55:21.701Z,98961.70
2018-12-02T06:57:59.984Z,98950.50
2018-12-02T07:02:43.194Z,98957.59
2018-12-02T07:05:15.160Z,98941.33
2018-12-02T07:07:43.689Z,98937.83
2018-12-02T07:10:12.309Z,98941.50
2018-12-02T07:12:40.795Z,98930.00
2018-12-02T07:15:09.366Z,98935.47
2018-12-02T07:17:40.408Z,98940.73
2018-12-02T07:20:11.876Z,98936.05
2018-12-02T07:22:44.072Z,98934.81
2018-12-02T07:25:16.142Z,98922.36
2018-12-02T07:27:44.660Z,98911.09
2018-12-02T07:30:13.337Z,98913.54
2018-12-02T07:32:41.892Z,98907.17
2018-12-02T07:35:12.011Z,98915.44
2018-12-02T07:37:41.917Z,98905.56
2018-12-02T07:40:44.159Z,98907.89
2018-12-02T07:43:13.383Z,98899.39
2018-12-02T07:45:41.880Z,98899.80
2018-12-02T07:48:10.444Z,98892.32
2018-12-02T07:50:40.113Z,98902.13
2018-12-02T07:53:07.517Z,98893.64
2018-12-02T07:55:36.101Z,98887.48
2018-12-02T07:58:04.677Z,98884.84
2018-12-02T08:00:33.212Z,98896.70
2018-12-02T08:03:01.698Z,98886.39
2018-12-02T08:05:30.391Z,98885.70
2018-12-02T08:07:58.925Z,98879.57
2018-12-02T08:10:27.484Z,98887.65
2018-12-02T08:12:56.035Z,98881.87
2018-12-02T08:15:24.519Z,98878.77
2018-12-02T08:17:53.048Z,98882.45
2018-12-02T08:20:21.602Z,98880.32
2018-12-02T08:22:51.469Z,98880.39
2018-12-02T08:25:19.708Z,98878.62
2018-12-02T08:27:48.943Z,98873.19
2018-12-02T08:30:19.668Z,98872.84
2018-12-02T08:32:48.168Z,98870.91
2018-12-02T08:35:17.692Z,98872.22
2018-12-02T08:37:47.837Z,98864.97
2018-12-02T08:40:16.432Z,98873.97
2018-12-02T08:42:44.968Z,98881.37
2018-12-02T08:45:17.593Z,98881.27
2018-12-02T08:47:46.405Z,98879.72
2018-12-02T08:50:17.012Z,98861.25
2018-12-02T08:52:46.977Z,98861.55
2018-12-02T08:55:16.826Z,98873.23
2018-12-02T08:57:45.776Z,98875.37
2018-12-02T09:00:16.472Z,98877.50
2018-12-02T09:02:47.300Z,98877.34
2018-12-02T09:05:23.548Z,98873.97
2018-12-02T09:07:52.662Z,98872.48
2018-12-02T09:10:25.461Z,98871.17
2018-12-02T09:12:57.480Z,98877.30
2018-12-02T09:15:26.093Z,98877.84
2018-12-02T09:17:54.717Z,98873.64
2018-12-02T09:20:25.028Z,98881.67
2018-12-02T09:22:53.744Z,98880.05
2018-12-02T09:25:22.284Z,98883.78
2018-12-02T09:27:51.822Z,98875.66
2018-12-02T09:30:22.987Z,98873.87
2018-12-02T09:32:51.619Z,98874.80
2018-12-02T09:35:20.543Z,98870.13
2018-12-02T09:37:49.307Z,98876.38
2018-12-02T09:40:18.024Z,98865.58
2018-12-02T09:42:48.108Z,98875.91
2018-12-02T09:45:17.960Z,98873.44
2018-12-02T09:47:46.783Z,98872.36
2018-12-02T09:50:16.033Z,98872.53
2018-12-02T09:52:44.599Z,98874.36
2018-12-02T09:55:45.189Z,98868.03
2018-12-02T09:58:21.749Z,98871.82
2018-12-02T10:00:50.593Z,98867.90
2018-12-02T10:03:19.279Z,98864.23
2018-12-02T10:05:48.328Z,98871.92
2018-12-02T10:09:20.511Z,98875.41
2018-12-02T10:11:49.133Z,98869.48
2018-12-02T10:14:17.817Z,98864.13
2018-12-02T10:16:46.375Z,98862.61
2018-12-02T10:19:14.993Z,98855.89
2018-12-02T10:21:43.928Z,98861.52
2018-12-02T10:24:12.473Z,98858.15
2018-12-02T10:26:41.120Z,98852.81
2018-12-02T10:29:09.999Z,98862.55
2018-12-02T10:31:38.640Z,98854.52
2018-12-02T10:34:07.360Z,98849.98
2018-12-02T10:36:35.879Z,98858.77
2018-12-02T10:39:05.953Z,98852.42
2018-12-02T10:41:34.481Z,98848.55
2018-12-02T10:44:02.980Z,98841.75
2018-12-02T10:46:31.620Z,98840.25
2018-12-02T10:49:00.237Z,98845.00
2018-12-02T10:51:28.751Z,98837.84
2018-12-02T10:53:57.471Z,98842.41
2018-12-02T10:56:26.128Z,98843.73
2018-12-02T10:58:54.723Z,98840.66
2018-12-02T11:01:42.256Z,98839.94
2018-12-02T11:04:11.182Z,98836.05
2018-12-02T11:06:39.767Z,98843.17
2018-12-02T11:09:10.732Z,98829.73
2018-12-02T11:11:39.541Z,98837.22
2018-12-02T11:14:09.125Z,98836.73
2018-12-02T11:16:43.979Z,98838.56
2018-12-02T11:19:13.815Z,98838.62
2018-12-02T11:21:42.961Z,98834.14
2018-12-02T11:24:11.504Z,98841.59
2018-12-02T11:26:40.067Z,98835.55
2018-12-02T11:29:08.637Z,98836.70
2018-12-02T11:31:37.107Z,98834.41
2018-12-02T11:34:05.695Z,98841.56
2018-12-02T11:36:34.269Z,98844.23
2018-12-02T11:39:02.822Z,98845.55
2018-12-02T11:41:31.366Z,98846.12
2018-12-02T11:44:00.517Z,98849.09
2018-12-02T11:46:28.995Z,98850.62
2018-12-02T11:48:57.564Z,98844.59
2018-12-02T11:51:26.109Z,98850.20
2018-12-02T11:53:54.636Z,98848.06
2018-12-02T11:56:23.261Z,98851.61
2018-12-02T11:58:51.817Z,98855.30
2018-12-02T12:01:20.340Z,98856.33
2018-12-02T12:03:48.843Z,98855.08
2018-12-02T12:06:17.551Z,98856.84
2018-12-02T12:08:46.055Z,98850.78
2018-12-02T12:11:14.601Z,98859.29
2018-12-02T12:13:43.123Z,98864.41
2018-12-02T12:16:11.625Z,98856.20
2018-12-02T12:18:40.343Z,98862.59
2018-12-02T12:21:08.832Z,98866.94
2018-12-02T12:23:37.366Z,98867.20
2018-12-02T12:26:06.687Z,98865.92
2018-12-02T12:28:35.387Z,98868.95
2018-12-02T12:31:03.889Z,98870.09
2018-12-02T12:33:32.500Z,98867.95
2018-12-02T12:36:01.049Z,98871.61
2018-12-02T12:38:29.580Z,98882.01
2018-12-02T12:40:58.100Z,98880.20
2018-12-02T12:43:32.505Z,98878.88
2018-12-02T12:46:02.021Z,98876.55
2018-12-02T12:48:31.447Z,98873.06
2018-12-02T12:51:00.036Z,98879.75
2018-12-02T12:53:28.596Z,98884.86
2018-12-02T12:55:57.204Z,98880.38
2018-12-02T12:58:25.817Z,98881.44
2018-12-02T13:00:54.324Z,98885.17
2018-12-02T13:03:22.903Z,98881.91
2018-12-02T13:05:51.408Z,98886.88
2018-12-02T13:08:20.055Z,98894.02
2018-12-02T13:10:48.708Z,98887.14
2018-12-02T13:13:17.210Z,98892.00
2018-12-02T13:15:45.871Z,98900.70
2018-12-02T13:18:14.364Z,98898.04
2018-12-02T13:20:46.373Z,98898.62
2018-12-02T13:23:14.970Z,98908.64
2018-12-02T13:25:43.452Z,98913.94
2018-12-02T13:28:12.038Z,98911.81
2018-12-02T13:30:40.753Z,98917.17
2018-12-02T13:33:09.240Z,98914.47
2018-12-02T13:35:38.925Z,98912.30
2018-12-02T13:38:07.472Z,98921.91
2018-12-02T13:40:36.804Z,98930.30
2018-12-02T13:43:09.587Z,98927.11
2018-12-02T13:45:38.300Z,98937.66
2018-12-02T13:48:07.061Z,98933.42
2018-12-02T13:50:35.571Z,98937.09
2018-12-02T13:53:04.183Z,98940.80
2018-12-02T13:55:32.992Z,98941.87
2018-12-02T13:58:01.997Z,98943.22
2018-12-02T14:00:31.167Z,98949.31
2018-12-02T14:03:11.900Z,98952.98
2018-12-02T14:05:48.449Z,98950.88
2018-12-02T14:08:17.461Z,98943.96
2018-12-02T14:10:46.251Z,98952.72
2018-12-02T14:13:17.428Z,98952.42
2018-12-02T14:15:58.091Z,98953.48
2018-12-02T14:18:36.857Z,98959.10
2018-12-02T14:21:06.236Z,98955.86
2018-12-02T14:23:35.168Z,98966.48
2018-12-02T14:26:06.171Z,98967.80
2018-12-02T14:28:41.831Z,98963.34
2018-12-02T14:31:10.486Z,98967.05
2018-12-02T14:33:38.967Z,98975.56
2018-12-02T14:36:07.519Z,98976.56
2018-12-02T14:38:36.023Z,98972.86
2018-12-02T14:41:04.540Z,98984.00
2018-12-02T14:43:33.058Z,98975.56
2018-12-02T14:46:01.633Z,98978.45
2018-12-02T14:48:30.384Z,98987.67
2018-12-02T14:50:58.888Z,98984.19
2018-12-02T14:53:27.424Z,98991.33
2018-12-02T14:55:56.020Z,98989.19
2018-12-02T14:58:24.560Z,98994.47
2018-12-02T15:00:53.100Z,98993.88
2018-12-02T15:03:21.646Z,98999.44
2018-12-02T15:05:50.231Z,98996.98
2018-12-02T15:08:18.840Z,99003.59
2018-12-02T15:10:47.365Z,99004.39
2018-12-02T15:13:15.870Z,99000.95
2018-12-02T15:15:44.361Z,99014.73
2018-12-02T15:18:12.925Z,99018.38
2018-12-02T15:20:41.435Z,99025.76
2018-12-02T15:23:10.783Z,99020.95
2018-12-02T15:25:39.291Z,99030.88
2018-12-02T15:28:08.573Z,99025.19
2018-12-02T15:30:37.277Z,99031.24
2018-12-02T15:33:06.603Z,99038.67
2018-12-02T15:35:35.365Z,99035.21
2018-12-02T15:38:03.898Z,99047.10
2018-12-02T15:40:32.465Z,99036.84
2018-12-02T15:43:01.115Z,99041.59
2018-12-02T15:45:29.748Z,99042.05
2018-12-02T15:47:58.301Z,99037.27
2018-12-02T15:50:26.867Z,99044.45
2018-12-02T15:52:55.376Z,99043.83
2018-12-02T15:55:27.190Z,99046.95
2018-12-02T15:57:55.984Z,99054.05
2018-12-02T16:00:28.917Z,99044.48
2018-12-02T16:02:57.412Z,99056.41
2018-12-02T16:05:25.979Z,99055.37
2018-12-02T16:07:54.604Z,99055.66
2018-12-02T16:10:23.108Z,99054.56
2018-12-02T16:12:52.862Z,99056.89
2018-12-02T16:15:24.925Z,99053.55
2018-12-02T16:17:53.637Z,99050.66
2018-12-02T16:20:27.618Z,99057.94
2018-12-02T16:22:56.892Z,99055.05
2018-12-02T16:25:25.486Z,99053.66
2018-12-02T16:27:54.127Z,99052.08
2018-12-02T16:30:22.679Z,99053.73
2018-12-02T16:32:52.344Z,99047.83
2018-12-02T16:35:21.351Z,99046.69
2018-12-02T16:37:51.107Z,99054.05
2018-12-02T16:40:26.568Z,99051.50
2018-12-02T16:42:58.471Z,99050.14
2018-12-02T16:45:27.148Z,99048.28
2018-12-02T16:47:56.869Z,99054.90
2018-12-02T16:50:30.475Z,99051.98
2018-12-02T16:53:00.451Z,99052.88
2018-12-02T16:55:31.655Z,99057.00
2018-12-02T16:58:03.960Z,99058.00
2018-12-02T17:00:46.102Z,99058.50
2018-12-02T17:03:14.620Z,99062.53
2018-12-02T17:05:43.264Z,99065.17
2018-12-02T17:08:11.803Z,99057.00
2018-12-02T17:10:40.688Z,99064.79
2018-12-02T17:13:09.185Z,99066.59
2018-12-02T17:15:37.800Z,99068.80
2018-12-02T17:18:06.450Z,99065.63
2018-12-02T17:20:35.090Z,99076.70
2018-12-02T17:23:03.633Z,99062.72
2018-12-02T17:25:32.204Z,99071.67
2018-12-02T17:28:00.692Z,99077.78
2018-12-02T17:30:36.233Z,99074.62
2018-12-02T17:33:04.964Z,99087.31
2018-12-02T17:35:33.455Z,99075.89
2018-12-02T17:38:01.951Z,99086.00
2018-12-02T17:40:30.603Z,99080.43
2018-12-02T17:42:59.219Z,99080.70
2018-12-02T17:45:27.684Z,99077.64
2018-12-02T17:47:56.262Z,99076.89
2018-12-02T17:50:24.791Z,99077.97
2018-12-02T17:52:53.310Z,99080.92
2018-12-02T17:55:21.929Z,99076.95
2018-12-02T17:57:50.407Z,99078.78
2018-12-02T18:00:23.534Z,99073.43
2018-12-02T18:02:52.556Z,99070.33
2018-12-02T18:05:24.096Z,99066.48
2018-12-02T18:07:53.208Z,99072.89
2018-12-02T18:10:21.812Z,99067.86
2018-12-02T18:12:50.871Z,99065.73
2018-12-02T18:15:19.552Z,99067.29
2018-12-02T18:17:48.328Z,99066.27
2018-12-02T18:20:18.238Z,99067.11
2018-12-02T18:22:47.510Z,99072.34
2018-12-02T18:25:17.971Z,99073.97
2018-12-02T18:27:46.684Z,99075.30
2018-12-02T18:30:19.832Z,99082.00
2018-12-02T18:32:49.643Z,99088.08
2018-12-02T18:36:24.648Z,99092.05
2018-12-02T18:38:53.280Z,99093.17
2018-12-02T18:41:30.232Z,99086.48
2018-12-02T18:43:59.225Z,99089.70
2018-12-02T18:46:27.835Z,99087.63
2018-12-02T18:48:56.505Z,99080.71
2018-12-02T18:51:25.054Z,99087.06
2018-12-02T18:53:54.020Z,99088.17
2018-12-02T18:56:23.731Z,99091.30
2018-12-02T18:58:52.210Z,99088.66
2018-12-02T19:01:21.372Z,99091.30
2018-12-02T19:03:50.051Z,99087.33
2018-12-02T19:06:19.933Z,99091.30
2018-12-02T19:08:48.649Z,99089.50
2018-12-02T19:11:17.200Z,99088.75
2018-12-02T19:13:45.948Z,99095.13
2018-12-02T19:16:14.734Z,99099.34
2018-12-02T19:18:44.504Z,99102.80
2018-12-02T19:21:16.005Z,99106.29
2018-12-02T19:23:44.789Z,99103.64
2018-12-02T19:26:13.652Z,99108.60
2018-12-02T19:28:42.182Z,99101.80
2018-12-02T19:31:10.748Z,99112.13
2018-12-02T19:33:39.392Z,99110.80
2018-12-02T19:36:26.180Z,99117.45
2018-12-02T19:38:54.935Z,99107.13
2018-12-02T19:41:23.433Z,99103.41
2018-12-02T19:43:51.948Z,99102.65
2018-12-02T19:46:20.659Z,99114.30
2018-12-02T19:48:49.737Z,99107.10
2018-12-02T19:51:18.452Z,99109.92
2018-12-02T19:53:46.921Z,99115.80
2018-12-02T19:56:15.547Z,99112.88
2018-12-02T19:58:44.098Z,99107.82
2018-12-02T20:01:13.215Z,99113.66
2018-12-02T20:03:41.725Z,99116.03
2018-12-02T20:06:10.240Z,99107.19
2018-12-02T20:08:38.859Z,99109.80
2018-12-02T20:11:07.965Z,99107.48
2018-12-02T20:13:36.569Z,99106.67
2018-12-02T20:16:10.451Z,99109.50
2018-12-02T20:18:39.021Z,99114.76
2018-12-02T20:21:07.924Z,99110.45
2018-12-02T20:23:41.630Z,99107.39
2018-12-02T20:26:11.925Z,99113.44
2018-12-02T20:28:41.684Z,99111.27
2018-12-02T20:31:12.848Z,99110.39
2018-12-02T20:33:41.397Z,99111.72
2018-12-02T20:36:10.130Z,99114.09
2018-12-02T20:38:38.665Z,99112.80
2018-12-02T20:41:07.383Z,99114.36
2018-12-02T20:43:35.968Z,99116.77
2018-12-02T20:46:04.683Z,99113.10
2018-12-02T20:48:33.294Z,99119.52
2018-12-02T20:51:01.865Z,99112.69
2018-12-02T20:53:30.443Z,99121.65
2018-12-02T20:55:58.947Z,99112.11
2018-12-02T20:58:27.498Z,99123.03
2018-12-02T21:00:56.696Z,99115.78
2018-12-02T21:03:28.072Z,99118.77
2018-12-02T21:06:03.769Z,99111.45
2018-12-02T21:08:32.393Z,99110.89
2018-12-02T21:11:01.043Z,99117.20
2018-12-02T21:13:29.560Z,99116.45
2018-12-02T21:15:58.082Z,99118.34
2018-12-02T21:18:26.721Z,99114.95
2018-12-02T21:20:55.216Z,99114.23
2018-12-02T21:23:23.708Z,99117.87
2018-12-02T21:25:52.750Z,99109.17
2018-12-02T21:28:23.440Z,99104.84
2018-12-02T21:30:52.069Z,99109.42
2018-12-02T21:33:20.632Z,99105.59
2018-12-02T21:35:49.776Z,99101.72
2018-12-02T21:38:18.285Z,99108.94
2018-12-02T21:40:46.797Z,99102.23
2018-12-02T21:43:15.370Z,99101.95
2018-12-02T21:45:43.967Z,99105.78
2018-12-02T21:48:14.371Z,99106.86
2018-12-02T21:50:43.708Z,99105.78
2018-12-02T21:53:12.251Z,99103.41
2018-12-02T21:55:40.801Z,99097.84
2018-12-02T21:58:09.345Z,99097.77
2018-12-02T22:00:43.225Z,99100.42
2018-12-02T22:03:11.867Z,99092.27
2018-12-02T22:05:40.391Z,99089.62
2018-12-02T22:08:08.892Z,99093.86
2018-12-02T22:10:37.440Z,99090.70
2018-12-02T22:13:06.392Z,99088.84
2018-12-02T22:15:35.034Z,99085.11
2018-12-02T22:18:03.617Z,99086.58
2018-12-02T22:20:32.131Z,99093.11
2018-12-02T22:23:00.788Z,99091.79
2018-12-02T22:25:29.347Z,99088.93
2018-12-02T22:27:57.870Z,99082.55
2018-12-02T22:30:26.801Z,99087.75
2018-12-02T22:32:55.292Z,99088.33
2018-12-02T22:35:23.823Z,99089.14
2018-12-02T22:37:52.324Z,99081.89
2018-12-02T22:40:24.119Z,99088.15
2018-12-02T22:42:53.757Z,99091.88
2018-12-02T22:45:29.531Z,99087.33
2018-12-02T22:47:58.029Z,99083.18
2018-12-02T22:50:28.451Z,99080.05
2018-12-02T22:52:58.186Z,99087.16
2018-12-02T22:55:26.708Z,99091.67
2018-12-02T22:57:55.262Z,99087.16
2018-12-02T23:00:34.193Z,99084.53
2018-12-02T23:03:03.708Z,99076.89
2018-12-02T23:05:32.348Z,99075.00
2018-12-02T23:08:01.359Z,99075.75
2018-12-02T23:10:30.076Z,99073.38
2018-12-02T23:12:58.843Z,99066.05
2018-12-02T23:15:27.407Z,99066.72
2018-12-02T23:17:56.048Z,99064.34
2018-12-02T23:20:24.735Z,99062.51
2018-12-02T23:22:53.259Z,99061.45
2018-12-02T23:25:21.813Z,99062.51
2018-12-02T23:27:50.554Z,99062.51
2018-12-02T23:30:22.797Z,99054.80
2018-12-02T23:32:51.616Z,99062.23
2018-12-02T23:35:20.188Z,99059.80
2018-12-02T23:37:48.745Z,99056.61
2018-12-02T23:40:20.936Z,99056.28
2018-12-02T23:42:49.579Z,99057.37
2018-12-02T23:45:18.380Z,99059.92
2018-12-02T23:47:47.076Z,99055.20
2018-12-02T23:50:17.504Z,99058.60
2018-12-02T23:52:46.161Z,99043.14
2018-12-02T23:55:16.241Z,99053.25
2018-12-02T23:57:44.796Z,99047.95
